Emmaus, Pennsylvania
Current Conditions -  °F | °C
As of 9:55 PM on Sunday 23 Nov 2014 (Local Time) from KXLL Reporting Station
Overcast Overcast  
Wind Chill:   Ceiling: 4700
Heat Index:   Visibility: 10mi
Dew Point:   Wind: 3mph
Humidity: 57%   Direction: 40°NE
Pressure: 30.01"   Gusts: NA
Location:  40.54°N, 75.49°W
Report Text: KXLL 240255Z AUTO 04003KT 10SM OVC047 09/01 A3001 RMK AO2 LTG DSNT S
Loading
Personal Weather Stations






























Interactive Weather Map New forecast layout! Learn more

10-Day Weather Forecast

Advertisements
Track Severe Weather on mobile